createdAt,value
2023-04-24T00:01:23.369Z,11.10
2023-04-24T00:03:50.724Z,11.00
2023-04-24T00:06:18.254Z,10.90
2023-04-24T00:08:45.417Z,11.30
2023-04-24T00:11:12.382Z,10.50
2023-04-24T00:13:39.665Z,10.90
2023-04-24T00:16:06.912Z,10.80
2023-04-24T00:18:33.966Z,11.80
2023-04-24T00:21:01.058Z,11.60
2023-04-24T00:23:28.174Z,11.70
2023-04-24T00:25:55.270Z,10.70
2023-04-24T00:28:22.160Z,12.00
2023-04-24T00:30:49.074Z,12.00
2023-04-24T00:33:16.084Z,12.70
2023-04-24T00:35:43.115Z,11.70
2023-04-24T00:38:11.690Z,12.10
2023-04-24T00:40:38.665Z,11.00
2023-04-24T00:43:05.649Z,11.00
2023-04-24T00:45:32.815Z,11.20
2023-04-24T00:47:59.850Z,10.90
2023-04-24T00:50:27.652Z,11.50
2023-04-24T00:52:54.646Z,10.00
2023-04-24T00:55:22.213Z,10.20
2023-04-24T00:57:49.226Z,10.50
2023-04-24T01:00:16.378Z,9.70
2023-04-24T01:02:48.071Z,9.90
2023-04-24T01:05:16.205Z,10.20
2023-04-24T01:07:46.591Z,10.70
2023-04-24T01:10:14.791Z,10.30
2023-04-24T01:12:41.921Z,9.20
2023-04-24T01:15:09.983Z,9.00
2023-04-24T01:17:37.163Z,9.00
2023-04-24T01:20:07.363Z,9.50
2023-04-24T01:22:37.484Z,9.80
2023-04-24T01:25:04.746Z,10.90
2023-04-24T01:27:31.616Z,10.10
2023-04-24T01:29:58.604Z,10.50
2023-04-24T01:32:26.332Z,10.60
2023-04-24T01:34:53.448Z,10.30
2023-04-24T01:37:20.558Z,11.10
2023-04-24T01:39:47.544Z,10.90
2023-04-24T01:42:14.493Z,10.40
2023-04-24T01:44:43.008Z,10.00
2023-04-24T01:47:10.106Z,9.80
2023-04-24T01:49:39.074Z,10.50
2023-04-24T01:52:07.503Z,11.50
2023-04-24T01:54:34.448Z,10.30
2023-04-24T01:57:03.768Z,10.30
2023-04-24T01:59:30.794Z,11.10
2023-04-24T02:01:57.827Z,10.10
2023-04-24T02:04:24.837Z,10.90
2023-04-24T02:06:52.403Z,10.80
2023-04-24T02:09:19.319Z,11.20
2023-04-24T02:11:46.446Z,11.70
2023-04-24T02:14:13.483Z,10.80
2023-04-24T02:16:40.677Z,10.30
2023-04-24T02:19:07.668Z,10.70
2023-04-24T02:21:34.814Z,10.60
2023-04-24T02:24:02.072Z,11.50
2023-04-24T02:26:29.121Z,10.50
2023-04-24T02:28:56.138Z,10.40
2023-04-24T02:31:23.093Z,10.20
2023-04-24T02:33:50.132Z,11.10
2023-04-24T02:36:17.608Z,10.40
2023-04-24T02:38:44.747Z,10.80
2023-04-24T02:41:13.135Z,12.00
2023-04-24T02:43:40.157Z,10.90
2023-04-24T02:46:07.345Z,11.10
2023-04-24T02:48:34.382Z,12.10
2023-04-24T02:51:01.418Z,11.10
2023-04-24T02:53:28.405Z,12.20
2023-04-24T02:55:55.328Z,10.40
2023-04-24T02:58:22.458Z,11.30
2023-04-24T03:00:49.413Z,10.00
2023-04-24T03:03:16.485Z,10.20
2023-04-24T03:05:43.787Z,9.20
2023-04-24T03:08:11.511Z,10.10
2023-04-24T03:10:38.513Z,11.90
2023-04-24T03:13:05.586Z,11.40
2023-04-24T03:15:35.109Z,10.80
2023-04-24T03:18:02.612Z,11.20
2023-04-24T03:20:29.641Z,11.60
2023-04-24T03:22:58.718Z,13.50
2023-04-24T03:25:27.066Z,11.40
2023-04-24T03:27:55.934Z,12.10
2023-04-24T03:30:32.376Z,12.80
2023-04-24T03:33:00.904Z,12.90
2023-04-24T03:35:31.066Z,11.30
2023-04-24T03:37:59.083Z,11.00
2023-04-24T03:40:43.469Z,11.00
2023-04-24T03:43:45.963Z,13.00
2023-04-24T03:46:13.155Z,12.50
2023-04-24T03:48:44.360Z,12.70
2023-04-24T03:51:11.349Z,12.70
2023-04-24T03:53:39.687Z,13.70
2023-04-24T03:56:06.742Z,15.30
2023-04-24T03:58:33.706Z,16.10
2023-04-24T04:01:01.389Z,16.30
2023-04-24T04:03:46.838Z,17.30
2023-04-24T04:06:14.792Z,18.90
2023-04-24T04:08:41.981Z,18.70
2023-04-24T04:11:09.252Z,17.20
2023-04-24T04:13:36.300Z,14.60
2023-04-24T04:16:03.485Z,12.10
2023-04-24T04:18:31.032Z,12.60
2023-04-24T04:20:58.414Z,11.70
2023-04-24T04:23:25.646Z,13.80
2023-04-24T04:26:04.707Z,12.60
2023-04-24T04:28:42.709Z,10.30
2023-04-24T04:31:09.726Z,12.10
2023-04-24T04:33:39.438Z,10.50
2023-04-24T04:36:07.041Z,7.70
2023-04-24T04:38:36.131Z,9.70
2023-04-24T04:41:13.306Z,9.00
2023-04-24T04:43:41.884Z,9.50
2023-04-24T04:46:12.011Z,7.90
2023-04-24T04:48:57.852Z,8.20
2023-04-24T04:51:25.114Z,8.50
2023-04-24T04:53:52.350Z,8.40
2023-04-24T04:56:19.419Z,7.40
2023-04-24T04:58:46.771Z,6.70
2023-04-24T05:01:16.081Z,7.40
2023-04-24T05:03:46.567Z,7.00
2023-04-24T05:06:16.274Z,6.80
2023-04-24T05:08:44.024Z,5.80
2023-04-24T05:11:19.972Z,6.20
2023-04-24T05:13:47.412Z,6.10
2023-04-24T05:16:25.796Z,6.20
2023-04-24T05:18:53.500Z,6.20
2023-04-24T05:21:23.889Z,6.50
2023-04-24T05:23:52.319Z,16.90
2023-04-24T05:26:27.656Z,7.60
2023-04-24T05:28:56.505Z,7.50
2023-04-24T05:31:23.657Z,6.70
2023-04-24T05:33:50.911Z,7.10
2023-04-24T05:36:18.065Z,7.00
2023-04-24T05:38:45.132Z,7.00
2023-04-24T05:41:12.159Z,7.40
2023-04-24T05:43:39.226Z,7.10
2023-04-24T05:46:06.549Z,6.50
2023-04-24T05:48:33.562Z,6.10
2023-04-24T05:51:02.327Z,6.10
2023-04-24T05:53:29.905Z,5.90
2023-04-24T05:55:57.037Z,6.00
2023-04-24T05:58:24.940Z,5.70
2023-04-24T06:00:52.143Z,5.90
2023-04-24T06:03:19.617Z,5.30
2023-04-24T06:05:48.505Z,5.00
2023-04-24T06:08:15.885Z,5.70
2023-04-24T06:10:43.545Z,5.80
2023-04-24T06:13:10.916Z,7.30
2023-04-24T06:15:45.712Z,5.80
2023-04-24T06:18:33.453Z,5.00
2023-04-24T06:21:01.227Z,4.60
2023-04-24T06:23:28.453Z,8.20
2023-04-24T06:25:56.936Z,5.30
2023-04-24T06:28:26.354Z,4.60
2023-04-24T06:30:54.120Z,4.70
2023-04-24T06:33:23.817Z,7.30
2023-04-24T06:35:52.871Z,5.00
2023-04-24T06:38:19.940Z,5.40
2023-04-24T06:40:49.902Z,7.00
2023-04-24T06:43:20.827Z,6.10
2023-04-24T06:45:48.744Z,7.50
2023-04-24T06:48:16.434Z,6.50
2023-04-24T06:50:43.439Z,6.30
2023-04-24T06:53:12.289Z,6.40
2023-04-24T06:55:39.684Z,9.30
2023-04-24T06:58:07.229Z,5.50
2023-04-24T07:00:37.177Z,5.40
2023-04-24T07:03:06.503Z,5.00
2023-04-24T07:05:36.569Z,5.20
2023-04-24T07:08:08.036Z,5.40
2023-04-24T07:10:37.195Z,5.10
2023-04-24T07:13:06.323Z,4.50
2023-04-24T07:15:33.726Z,4.30
2023-04-24T07:18:04.026Z,4.50
2023-04-24T07:20:36.161Z,4.50
2023-04-24T07:23:04.345Z,5.00
2023-04-24T07:25:32.552Z,4.30
2023-04-24T07:27:59.856Z,4.10
2023-04-24T07:30:36.906Z,4.30
2023-04-24T07:35:38.404Z,4.20
2023-04-24T07:38:06.477Z,4.30
2023-04-24T07:40:39.787Z,4.00
2023-04-24T07:43:12.616Z,4.60
2023-04-24T07:45:44.406Z,5.40
2023-04-24T07:48:17.732Z,4.10
2023-04-24T07:50:47.940Z,4.10
2023-04-24T07:53:16.086Z,4.50
2023-04-24T07:55:43.471Z,7.20
2023-04-24T07:58:10.660Z,5.00
2023-04-24T08:00:40.227Z,4.40
2023-04-24T08:03:07.497Z,4.00
2023-04-24T08:05:35.090Z,3.90
2023-04-24T08:08:02.250Z,4.50
2023-04-24T08:10:29.624Z,4.20
2023-04-24T08:12:56.981Z,6.60
2023-04-24T08:15:24.085Z,4.60
2023-04-24T08:17:51.878Z,4.20
2023-04-24T08:20:19.084Z,4.60
2023-04-24T08:22:48.871Z,3.90
2023-04-24T08:25:16.324Z,3.80
2023-04-24T08:27:43.752Z,4.10
2023-04-24T08:30:11.187Z,4.40
2023-04-24T08:32:38.619Z,4.40
2023-04-24T08:35:07.011Z,4.20
2023-04-24T08:37:34.317Z,3.90
2023-04-24T08:40:01.926Z,3.80
2023-04-24T08:42:29.596Z,4.60
2023-04-24T08:45:01.740Z,4.50
2023-04-24T08:47:28.866Z,4.00
2023-04-24T08:49:57.917Z,4.10
2023-04-24T08:52:29.754Z,4.50
2023-04-24T08:54:56.863Z,3.90
2023-04-24T08:57:23.840Z,4.30
2023-04-24T08:59:51.171Z,4.00
2023-04-24T09:02:27.059Z,4.00
2023-04-24T09:05:00.800Z,4.30
2023-04-24T09:07:42.063Z,5.30
2023-04-24T09:10:21.449Z,5.00
2023-04-24T09:12:48.677Z,4.60
2023-04-24T09:15:16.560Z,4.90
2023-04-24T09:17:46.865Z,4.90
2023-04-24T09:20:13.977Z,4.50
2023-04-24T09:22:42.439Z,4.60
2023-04-24T09:25:10.221Z,4.70
2023-04-24T09:27:37.324Z,4.50
2023-04-24T09:30:08.777Z,4.40
2023-04-24T09:32:36.422Z,4.90
2023-04-24T09:35:13.260Z,4.30
2023-04-24T09:37:49.848Z,4.70
2023-04-24T09:40:21.760Z,5.10
2023-04-24T09:42:58.197Z,5.20
2023-04-24T09:45:43.500Z,4.40
2023-04-24T09:48:11.411Z,4.70
2023-04-24T09:50:38.916Z,4.10
2023-04-24T09:53:08.479Z,4.60
2023-04-24T09:55:40.275Z,4.50
2023-04-24T09:58:08.860Z,4.80
2023-04-24T10:00:36.241Z,5.30
2023-04-24T10:03:05.945Z,4.90
2023-04-24T10:05:37.942Z,4.40
2023-04-24T10:08:14.573Z,5.00
2023-04-24T10:10:50.570Z,5.60
2023-04-24T10:13:17.859Z,5.10
2023-04-24T10:15:45.406Z,4.70
2023-04-24T10:18:15.280Z,4.50
2023-04-24T10:20:42.773Z,4.90
2023-04-24T10:23:09.890Z,4.60
2023-04-24T10:25:40.557Z,4.40
2023-04-24T10:28:09.765Z,4.60
2023-04-24T10:30:38.771Z,4.60
2023-04-24T10:33:07.022Z,4.80
2023-04-24T10:35:43.048Z,5.10
2023-04-24T10:38:14.716Z,4.70
2023-04-24T10:40:43.431Z,4.40
2023-04-24T10:43:12.371Z,5.30
2023-04-24T10:45:47.627Z,4.80
2023-04-24T10:48:20.516Z,5.00
2023-04-24T10:50:54.685Z,4.40
2023-04-24T10:53:28.038Z,4.10
2023-04-24T10:55:59.608Z,4.70
2023-04-24T10:58:46.094Z,4.60
2023-04-24T11:01:30.637Z,4.50
2023-04-24T11:04:02.197Z,5.20
2023-04-24T11:06:33.099Z,4.40
2023-04-24T11:09:13.577Z,5.40
2023-04-24T11:11:46.360Z,4.90
2023-04-24T11:14:16.833Z,4.80
2023-04-24T11:16:56.358Z,4.60
2023-04-24T11:19:26.807Z,4.50
2023-04-24T11:22:15.413Z,4.50
2023-04-24T11:24:48.491Z,4.40
2023-04-24T11:27:23.022Z,4.40
2023-04-24T11:29:56.767Z,4.50
2023-04-24T11:32:33.650Z,4.10
2023-04-24T11:35:20.257Z,3.80
2023-04-24T11:38:18.726Z,4.80
2023-04-24T11:40:40.495Z,4.40
2023-04-24T11:43:09.946Z,4.80
2023-04-24T11:45:37.122Z,5.40
2023-04-24T11:48:04.951Z,5.10
2023-04-24T11:50:32.236Z,4.50
2023-04-24T11:53:00.217Z,4.70
2023-04-24T11:55:28.384Z,5.50
2023-04-24T11:58:00.712Z,5.40
2023-04-24T12:00:39.416Z,4.40
2023-04-24T12:03:12.907Z,4.00
2023-04-24T12:05:41.123Z,4.30
2023-04-24T12:08:08.818Z,4.30
2023-04-24T12:10:38.799Z,4.40
2023-04-24T12:13:06.607Z,4.00
2023-04-24T12:15:39.242Z,4.00
2023-04-24T12:18:10.745Z,4.30
2023-04-24T12:20:37.836Z,4.10
2023-04-24T12:23:04.950Z,3.90
2023-04-24T12:25:35.694Z,4.40
2023-04-24T12:28:06.097Z,4.20
2023-04-24T12:31:04.091Z,4.10
2023-04-24T12:33:35.823Z,4.20
2023-04-24T12:36:03.600Z,4.20
2023-04-24T12:38:42.111Z,4.20
2023-04-24T12:41:11.145Z,4.50
2023-04-24T12:43:38.589Z,4.00
2023-04-24T12:46:06.231Z,4.10
2023-04-24T12:48:33.640Z,3.70
2023-04-24T12:51:02.776Z,3.70
2023-04-24T12:53:33.316Z,3.70
2023-04-24T12:58:53.229Z,5.00
2023-04-24T13:01:20.584Z,4.80
2023-04-24T13:03:47.930Z,4.80
2023-04-24T13:06:15.263Z,6.80
2023-04-24T13:08:45.403Z,4.30
2023-04-24T13:11:12.621Z,4.70
2023-04-24T13:13:40.000Z,4.10
2023-04-24T13:16:13.466Z,4.10
2023-04-24T13:18:41.120Z,3.70
2023-04-24T13:21:08.162Z,4.00
2023-04-24T13:23:36.029Z,4.50
2023-04-24T13:26:06.242Z,4.30
2023-04-24T13:28:33.475Z,4.30
2023-04-24T13:31:00.567Z,4.10
2023-04-24T13:33:33.307Z,4.40
2023-04-24T13:36:01.227Z,4.30
2023-04-24T13:38:28.257Z,4.10
2023-04-24T13:40:56.021Z,4.40
2023-04-24T13:43:23.213Z,3.90
2023-04-24T13:45:50.452Z,4.10
2023-04-24T13:48:18.066Z,3.90
2023-04-24T13:50:45.683Z,3.40
2023-04-24T13:53:13.875Z,4.30
2023-04-24T13:55:41.279Z,4.10
2023-04-24T13:58:08.765Z,4.60
2023-04-24T14:00:36.389Z,4.30
2023-04-24T14:03:03.593Z,4.10
2023-04-24T14:05:31.181Z,4.60
2023-04-24T14:07:58.439Z,4.80
2023-04-24T14:10:28.432Z,4.20
2023-04-24T14:13:06.675Z,4.40
2023-04-24T14:15:33.830Z,4.00
2023-04-24T14:18:05.681Z,4.20
2023-04-24T14:20:33.776Z,3.60
2023-04-24T14:23:00.864Z,4.80
2023-04-24T14:25:28.169Z,3.60
2023-04-24T14:31:10.372Z,3.80
2023-04-24T14:33:37.764Z,4.70
2023-04-24T14:36:06.834Z,4.80
2023-04-24T14:38:34.019Z,4.10
2023-04-24T14:41:10.538Z,3.90
2023-04-24T14:43:40.519Z,3.70
2023-04-24T14:46:07.824Z,4.10
2023-04-24T14:48:34.836Z,4.30
2023-04-24T14:51:01.998Z,4.20
2023-04-24T14:53:29.074Z,4.30
2023-04-24T14:55:56.658Z,4.10
2023-04-24T14:58:24.509Z,3.70
2023-04-24T15:00:54.092Z,3.90
2023-04-24T15:03:21.929Z,5.70
2023-04-24T15:05:52.204Z,4.90
2023-04-24T15:08:19.225Z,4.20
2023-04-24T15:10:46.481Z,3.80
2023-04-24T15:13:13.461Z,3.30
2023-04-24T15:15:41.175Z,3.90
2023-04-24T15:18:09.862Z,3.30
2023-04-24T15:20:38.630Z,4.00
2023-04-24T15:23:09.840Z,3.40
2023-04-24T15:25:37.345Z,3.70
2023-04-24T15:28:04.720Z,4.10
2023-04-24T15:30:31.649Z,4.20
2023-04-24T15:32:58.601Z,3.50
2023-04-24T15:35:25.688Z,3.90
2023-04-24T15:37:52.699Z,3.80
2023-04-24T15:40:19.679Z,4.00
2023-04-24T15:42:47.235Z,3.10
2023-04-24T15:45:14.279Z,3.60
2023-04-24T15:47:41.206Z,3.30
2023-04-24T15:50:14.325Z,3.80
2023-04-24T15:52:41.618Z,4.00
2023-04-24T15:55:08.874Z,4.70
2023-04-24T15:57:35.993Z,4.60
2023-04-24T16:00:07.515Z,3.50
2023-04-24T16:02:39.162Z,3.70
2023-04-24T16:05:07.544Z,3.80
2023-04-24T16:07:34.871Z,3.70
2023-04-24T16:10:01.942Z,3.50
2023-04-24T16:12:28.940Z,3.60
2023-04-24T16:14:56.064Z,3.80
2023-04-24T16:17:23.477Z,4.00
2023-04-24T16:19:50.471Z,4.00
2023-04-24T16:22:17.487Z,3.90
2023-04-24T16:24:44.730Z,3.50
2023-04-24T16:27:12.305Z,3.50
2023-04-24T16:29:39.557Z,4.60
2023-04-24T16:32:06.585Z,3.80
2023-04-24T16:34:33.799Z,4.10
2023-04-24T16:37:00.715Z,3.60
2023-04-24T16:39:28.166Z,3.90
2023-04-24T16:41:56.662Z,3.80
2023-04-24T16:44:25.037Z,4.30
2023-04-24T16:46:52.033Z,4.10
2023-04-24T16:49:18.980Z,3.60
2023-04-24T16:51:46.027Z,4.20
2023-04-24T16:54:13.181Z,4.00
2023-04-24T16:56:40.156Z,4.00
2023-04-24T16:59:08.253Z,3.80
2023-04-24T17:01:35.354Z,5.00
2023-04-24T17:04:02.609Z,3.70
2023-04-24T17:06:29.602Z,4.30
2023-04-24T17:08:56.662Z,3.80
2023-04-24T17:11:23.509Z,4.20
2023-04-24T17:13:50.463Z,4.40
2023-04-24T17:16:17.407Z,4.00
2023-04-24T17:18:44.469Z,4.20
2023-04-24T17:21:11.469Z,4.50
2023-04-24T17:23:38.531Z,4.10
2023-04-24T17:26:05.928Z,4.30
2023-04-24T17:28:33.049Z,3.70
2023-04-24T17:31:00.272Z,3.90
2023-04-24T17:33:27.572Z,4.20
2023-04-24T17:35:54.823Z,3.80
2023-04-24T17:38:21.749Z,4.10
2023-04-24T17:40:52.991Z,4.30
2023-04-24T17:43:23.498Z,4.30
2023-04-24T17:45:51.435Z,4.70
2023-04-24T17:48:18.849Z,3.70
2023-04-24T17:50:46.171Z,4.30
2023-04-24T17:53:13.682Z,4.30
2023-04-24T17:55:42.085Z,4.30
2023-04-24T17:58:09.345Z,4.00
2023-04-24T18:00:36.478Z,4.20
2023-04-24T18:03:03.980Z,4.60
2023-04-24T18:05:31.820Z,4.80
2023-04-24T18:07:59.047Z,5.20
2023-04-24T18:10:26.341Z,4.10
2023-04-24T18:12:53.307Z,4.30
2023-04-24T18:15:20.556Z,4.00
2023-04-24T18:17:47.737Z,4.10
2023-04-24T18:20:15.806Z,4.40
2023-04-24T18:22:42.994Z,5.10
2023-04-24T18:25:10.605Z,3.90
2023-04-24T18:27:38.373Z,4.10
2023-04-24T18:30:06.871Z,3.60
2023-04-24T18:32:34.085Z,4.10
2023-04-24T18:35:01.060Z,4.40
2023-04-24T18:37:28.201Z,3.90
2023-04-24T18:39:56.540Z,4.30
2023-04-24T18:42:23.598Z,4.80
2023-04-24T18:44:51.505Z,4.10
2023-04-24T18:47:18.466Z,4.50
2023-04-24T18:49:45.376Z,5.20
2023-04-24T18:52:12.317Z,4.70
2023-04-24T18:54:39.198Z,4.70
2023-04-24T18:57:06.757Z,4.30
2023-04-24T18:59:33.737Z,4.60
2023-04-24T19:02:00.805Z,4.50
2023-04-24T19:04:29.828Z,4.30
2023-04-24T19:06:56.797Z,4.40
2023-04-24T19:09:23.765Z,6.70
2023-04-24T19:11:50.858Z,3.80
2023-04-24T19:14:17.945Z,4.80
2023-04-24T19:16:45.208Z,4.40
2023-04-24T19:19:12.287Z,4.60
2023-04-24T19:21:39.295Z,4.90
2023-04-24T19:24:06.560Z,4.20
2023-04-24T19:26:33.524Z,4.50
2023-04-24T19:29:00.716Z,4.90
2023-04-24T19:31:27.855Z,4.90
2023-04-24T19:33:54.770Z,4.10
2023-04-24T19:36:21.829Z,4.60
2023-04-24T19:38:51.050Z,5.00
2023-04-24T19:41:18.366Z,4.50
2023-04-24T19:43:47.470Z,4.20
2023-04-24T19:46:14.550Z,4.20
2023-04-24T19:48:41.546Z,4.40
2023-04-24T19:51:08.588Z,4.90
2023-04-24T19:53:35.471Z,4.10
2023-04-24T19:56:02.351Z,4.50
2023-04-24T19:58:31.256Z,4.80
2023-04-24T20:00:58.364Z,4.30
2023-04-24T20:03:32.736Z,3.90
2023-04-24T20:06:00.971Z,4.00
2023-04-24T20:08:27.839Z,4.20
2023-04-24T20:10:58.033Z,4.30
2023-04-24T20:13:27.744Z,3.90
2023-04-24T20:15:54.948Z,4.20
2023-04-24T20:18:21.849Z,5.20
2023-04-24T20:20:48.833Z,4.40
2023-04-24T20:23:15.909Z,3.90
2023-04-24T20:25:42.962Z,3.90
2023-04-24T20:28:09.872Z,4.30
2023-04-24T20:30:38.127Z,4.70
2023-04-24T20:33:05.114Z,4.60
2023-04-24T20:35:32.418Z,4.10
2023-04-24T20:37:59.776Z,4.40
2023-04-24T20:40:28.220Z,4.10
2023-04-24T20:42:56.572Z,4.40
2023-04-24T20:45:24.254Z,4.50
2023-04-24T20:47:51.357Z,4.50
2023-04-24T20:50:18.938Z,5.10
2023-04-24T20:52:45.930Z,4.90
2023-04-24T20:55:13.066Z,4.40
2023-04-24T20:57:40.218Z,4.10
2023-04-24T21:00:08.587Z,3.90
2023-04-24T21:02:35.732Z,3.90
2023-04-24T21:05:04.435Z,4.00
2023-04-24T21:07:31.459Z,3.60
2023-04-24T21:09:58.422Z,4.40
2023-04-24T21:12:25.406Z,4.00
2023-04-24T21:14:52.345Z,4.00
2023-04-24T21:17:19.337Z,4.00
2023-04-24T21:19:46.237Z,4.00
2023-04-24T21:22:13.178Z,4.10
2023-04-24T21:24:40.056Z,4.30
2023-04-24T21:27:07.613Z,4.50
2023-04-24T21:29:35.878Z,4.10
2023-04-24T21:32:03.624Z,4.50
2023-04-24T21:34:30.796Z,4.00
2023-04-24T21:36:57.759Z,4.50
2023-04-24T21:39:25.093Z,4.30
2023-04-24T21:41:52.148Z,4.20
2023-04-24T21:44:19.080Z,4.10
2023-04-24T21:46:46.614Z,4.50
2023-04-24T21:49:13.684Z,4.20
2023-04-24T21:51:40.597Z,3.90
2023-04-24T21:54:07.520Z,4.40
2023-04-24T21:56:34.461Z,5.00
2023-04-24T21:59:01.521Z,4.40
2023-04-24T22:01:28.511Z,4.60
2023-04-24T22:03:55.958Z,4.50
2023-04-24T22:06:23.208Z,4.30
2023-04-24T22:08:50.135Z,3.80
2023-04-24T22:11:26.909Z,4.10
2023-04-24T22:13:55.034Z,4.40
2023-04-24T22:16:24.044Z,4.40
2023-04-24T22:18:53.789Z,5.10
2023-04-24T22:21:21.527Z,4.60
2023-04-24T22:23:48.720Z,3.70
2023-04-24T22:26:16.072Z,3.50
2023-04-24T22:28:42.975Z,3.90
2023-04-24T22:31:09.974Z,4.50
2023-04-24T22:33:37.034Z,4.90
2023-04-24T22:36:04.232Z,4.00
2023-04-24T22:38:31.168Z,4.20
2023-04-24T22:40:58.127Z,4.40
2023-04-24T22:43:25.221Z,4.80
2023-04-24T22:45:52.180Z,4.50
2023-04-24T22:48:19.110Z,4.60
2023-04-24T22:50:46.065Z,4.30
2023-04-24T22:53:13.072Z,3.50
2023-04-24T22:55:40.030Z,3.90
2023-04-24T22:58:07.002Z,4.30
2023-04-24T23:00:34.155Z,3.90
2023-04-24T23:03:01.273Z,4.50
2023-04-24T23:05:28.418Z,4.40
2023-04-24T23:07:55.408Z,4.10
2023-04-24T23:10:22.720Z,3.90
2023-04-24T23:12:49.811Z,4.60
2023-04-24T23:15:16.932Z,4.50
2023-04-24T23:17:43.998Z,4.10
2023-04-24T23:20:13.770Z,4.20
2023-04-24T23:22:41.062Z,4.90
2023-04-24T23:25:11.395Z,4.40
2023-04-24T23:27:38.656Z,4.20
2023-04-24T23:30:07.127Z,3.90
2023-04-24T23:32:34.114Z,4.40
2023-04-24T23:35:01.034Z,4.60
2023-04-24T23:37:28.075Z,4.50
2023-04-24T23:39:54.920Z,4.40
2023-04-24T23:42:21.907Z,4.40
2023-04-24T23:44:48.895Z,4.70
2023-04-24T23:47:15.936Z,4.10
2023-04-24T23:49:42.889Z,4.20
2023-04-24T23:52:09.900Z,4.50
2023-04-24T23:54:37.180Z,4.40
2023-04-24T23:57:04.671Z,4.60
2023-04-24T23:59:31.860Z,4.00
